createdAt,value
2018-05-21T00:00:53.301Z,101535.47
2018-05-21T00:03:21.621Z,101542.84
2018-05-21T00:05:49.968Z,101544.88
2018-05-21T00:08:18.289Z,101548.20
2018-05-21T00:10:46.628Z,101549.72
2018-05-21T00:13:14.949Z,101548.06
2018-05-21T00:15:43.288Z,101545.59
2018-05-21T00:18:11.604Z,101543.59
2018-05-21T00:20:39.944Z,101539.81
2018-05-21T00:23:08.270Z,101536.57
2018-05-21T00:25:36.608Z,101532.83
2018-05-21T00:28:04.928Z,101533.28
2018-05-21T00:30:33.269Z,101536.42
2018-05-21T00:33:01.593Z,101527.24
2018-05-21T00:35:29.939Z,101522.52
2018-05-21T00:37:58.256Z,101528.18
2018-05-21T00:40:26.604Z,101530.88
2018-05-21T00:42:54.916Z,101526.48
2018-05-21T00:45:23.260Z,101528.86
2018-05-21T00:47:51.581Z,101527.66
2018-05-21T00:50:19.925Z,101530.44
2018-05-21T00:52:48.240Z,101533.30
2018-05-21T00:55:28.481Z,101534.50
2018-05-21T00:57:56.800Z,101533.67
2018-05-21T01:00:25.143Z,101530.19
2018-05-21T01:02:53.464Z,101531.50
2018-05-21T01:05:21.802Z,101537.88
2018-05-21T01:07:50.120Z,101537.45
2018-05-21T01:10:18.461Z,101533.43
2018-05-21T01:12:46.772Z,101534.22
2018-05-21T01:15:15.113Z,101532.98
2018-05-21T01:17:43.428Z,101538.86
2018-05-21T01:20:11.769Z,101537.50
2018-05-21T01:22:40.093Z,101529.77
2018-05-21T01:25:08.432Z,101523.24
2018-05-21T01:27:36.748Z,101526.41
2018-05-21T01:30:05.093Z,101532.24
2018-05-21T01:32:33.404Z,101527.20
2018-05-21T01:35:01.761Z,101526.25
2018-05-21T01:37:30.084Z,101527.67
2018-05-21T01:42:32.093Z,101529.51
2018-05-21T01:45:00.432Z,101528.42
2018-05-21T01:47:28.748Z,101531.91
2018-05-21T01:49:57.060Z,101528.95
2018-05-21T01:52:25.400Z,101530.99
2018-05-21T01:54:53.720Z,101533.00
2018-05-21T01:57:22.063Z,101527.41
2018-05-21T01:59:50.389Z,101520.33
2018-05-21T02:02:18.734Z,101524.10
2018-05-21T02:04:47.069Z,101521.17
2018-05-21T02:07:15.408Z,101514.61
2018-05-21T02:09:43.730Z,101509.91
2018-05-21T02:12:12.072Z,101517.43
2018-05-21T02:14:40.402Z,101506.20
2018-05-21T02:17:08.740Z,101500.23
2018-05-21T02:19:37.061Z,101493.06
2018-05-21T02:22:05.405Z,101498.20
2018-05-21T02:24:33.721Z,101489.27
2018-05-21T02:27:02.171Z,101492.75
2018-05-21T02:29:30.385Z,101484.85
2018-05-21T02:31:58.736Z,101492.95
2018-05-21T02:34:27.061Z,101493.39
2018-05-21T02:36:55.413Z,101496.68
2018-05-21T02:39:23.737Z,101503.80
2018-05-21T02:41:52.088Z,101502.25
2018-05-21T02:44:20.422Z,101503.14
2018-05-21T02:46:48.760Z,101496.17
2018-05-21T02:49:17.079Z,101497.73
2018-05-21T02:51:45.432Z,101493.59
2018-05-21T02:54:13.761Z,101487.63
2018-05-21T02:56:42.112Z,101485.15
2018-05-21T02:59:10.429Z,101481.73
2018-05-21T03:01:38.780Z,101480.46
2018-05-21T03:04:07.105Z,101477.13
2018-05-21T03:06:35.457Z,101478.84
2018-05-21T03:09:03.772Z,101479.95
2018-05-21T03:11:32.125Z,101486.62
2018-05-21T03:14:00.452Z,101481.91
2018-05-21T03:16:28.813Z,101486.16
2018-05-21T03:18:57.138Z,101480.91
2018-05-21T03:21:25.493Z,101482.70
2018-05-21T03:23:53.821Z,101479.06
2018-05-21T03:26:22.177Z,101478.42
2018-05-21T03:28:50.506Z,101475.66
2018-05-21T03:31:18.875Z,101477.46
2018-05-21T03:33:47.183Z,101478.32
2018-05-21T03:36:15.541Z,101475.54
2018-05-21T03:38:43.881Z,101478.22
2018-05-21T03:41:12.228Z,101482.57
2018-05-21T03:43:40.556Z,101486.36
2018-05-21T03:46:08.921Z,101483.89
2018-05-21T03:48:37.240Z,101482.06
2018-05-21T03:51:05.574Z,101474.36
2018-05-21T03:53:33.917Z,101479.53
2018-05-21T03:56:02.245Z,101485.45
2018-05-21T03:58:42.482Z,101482.87
2018-05-21T04:01:22.601Z,101491.00
2018-05-21T04:03:55.871Z,101487.95
2018-05-21T04:06:24.228Z,101485.03
2018-05-21T04:08:52.562Z,101488.57
2018-05-21T04:11:20.924Z,101483.14
2018-05-21T04:13:49.255Z,101484.47
2018-05-21T04:16:17.574Z,101489.66
2018-05-21T04:18:46.004Z,101488.09
2018-05-21T04:21:14.251Z,101489.95
2018-05-21T04:23:42.596Z,101489.70
2018-05-21T04:26:10.936Z,101490.98
2018-05-21T04:28:39.287Z,101490.14
2018-05-21T04:31:07.621Z,101493.27
2018-05-21T04:33:35.965Z,101491.66
2018-05-21T04:36:04.301Z,101490.20
2018-05-21T04:38:32.682Z,101493.42
2018-05-21T04:41:01.014Z,101491.02
2018-05-21T04:43:29.365Z,101490.64
2018-05-21T04:45:57.696Z,101497.06
2018-05-21T04:48:26.072Z,101495.29
2018-05-21T04:50:54.400Z,101497.74
2018-05-21T04:53:22.749Z,101492.83
2018-05-21T04:55:51.084Z,101487.25
2018-05-21T04:58:19.438Z,101489.73
2018-05-21T05:00:47.756Z,101492.66
2018-05-21T05:03:16.100Z,101486.11
2018-05-21T05:05:44.412Z,101488.95
2018-05-21T05:08:12.769Z,101487.13
2018-05-21T05:10:41.093Z,101480.92
2018-05-21T05:13:09.437Z,101483.53
2018-05-21T05:15:37.780Z,101475.89
2018-05-21T05:18:06.112Z,101471.71
2018-05-21T05:20:34.445Z,101475.36
2018-05-21T05:23:02.793Z,101476.12
2018-05-21T05:25:31.124Z,101469.64
2018-05-21T05:27:59.476Z,101470.56
2018-05-21T05:30:27.813Z,101473.60
2018-05-21T05:32:56.164Z,101473.29
2018-05-21T05:35:24.489Z,101469.23
2018-05-21T05:37:52.837Z,101464.28
2018-05-21T05:40:21.153Z,101463.63
2018-05-21T05:42:49.492Z,101468.59
2018-05-21T05:45:17.813Z,101458.13
2018-05-21T05:47:46.149Z,101460.41
2018-05-21T05:50:14.470Z,101461.47
2018-05-21T05:52:42.825Z,101460.80
2018-05-21T05:55:11.140Z,101458.39
2018-05-21T05:57:39.484Z,101453.23
2018-05-21T06:00:07.805Z,101450.24
2018-05-21T06:02:36.143Z,101452.70
2018-05-21T06:05:04.476Z,101449.00
2018-05-21T06:07:32.820Z,101447.41
2018-05-21T06:10:01.153Z,101442.69
2018-05-21T06:12:29.520Z,101443.54
2018-05-21T06:14:57.842Z,101441.41
2018-05-21T06:17:26.169Z,101444.46
2018-05-21T06:19:54.512Z,101446.23
2018-05-21T06:22:22.841Z,101445.39
2018-05-21T06:24:51.184Z,101435.94
2018-05-21T06:27:19.505Z,101435.48
2018-05-21T06:29:48.145Z,101435.94
2018-05-21T06:32:16.508Z,101441.11
2018-05-21T06:34:44.855Z,101441.13
2018-05-21T06:37:13.181Z,101441.97
2018-05-21T06:39:41.528Z,101440.23
2018-05-21T06:42:09.857Z,101445.02
2018-05-21T06:44:38.209Z,101439.84
2018-05-21T06:47:06.533Z,101438.95
2018-05-21T06:49:34.889Z,101437.66
2018-05-21T06:52:03.217Z,101437.20
2018-05-21T06:54:31.563Z,101438.94
2018-05-21T06:56:59.896Z,101444.98
2018-05-21T06:59:28.240Z,101434.23
2018-05-21T07:01:56.562Z,101441.53
2018-05-21T07:04:24.918Z,101434.19
2018-05-21T07:06:53.239Z,101435.36
2018-05-21T07:09:21.594Z,101426.24
2018-05-21T07:11:49.921Z,101435.76
2018-05-21T07:14:18.269Z,101429.28
2018-05-21T07:16:46.596Z,101432.73
2018-05-21T07:19:14.949Z,101424.12
2018-05-21T07:21:43.272Z,101425.79
2018-05-21T07:24:11.633Z,101417.20
2018-05-21T07:26:39.956Z,101409.45
2018-05-21T07:29:08.309Z,101415.55
2018-05-21T07:31:36.649Z,101410.45
2018-05-21T07:34:04.992Z,101406.51
2018-05-21T07:36:33.329Z,101404.38
2018-05-21T07:39:01.680Z,101400.88
2018-05-21T07:41:30.004Z,101398.29
2018-05-21T07:43:58.353Z,101397.44
2018-05-21T07:46:26.677Z,101393.98
2018-05-21T07:48:55.683Z,101383.61
2018-05-21T07:51:24.029Z,101390.94
2018-05-21T07:53:52.365Z,101384.88
2018-05-21T07:56:20.685Z,101378.78
2018-05-21T07:58:49.037Z,101381.70
2018-05-21T08:01:17.357Z,101378.98
2018-05-21T08:03:45.709Z,101385.41
2018-05-21T08:06:14.036Z,101383.68
2018-05-21T08:08:42.381Z,101376.37
2018-05-21T08:11:10.717Z,101371.84
2018-05-21T08:13:39.177Z,101371.80
2018-05-21T08:16:07.510Z,101379.09
2018-05-21T08:18:35.852Z,101376.41
2018-05-21T08:21:04.204Z,101369.66
2018-05-21T08:23:32.529Z,101365.33
2018-05-21T08:26:00.885Z,101368.23
2018-05-21T08:28:29.220Z,101364.02
2018-05-21T08:30:57.572Z,101365.75
2018-05-21T08:33:25.909Z,101365.75
2018-05-21T08:35:54.271Z,101365.52
2018-05-21T08:38:22.594Z,101363.16
2018-05-21T08:40:50.946Z,101358.31
2018-05-21T08:43:19.267Z,101363.80
2018-05-21T08:45:47.616Z,101360.75
2018-05-21T08:48:15.940Z,101362.78
2018-05-21T08:50:44.728Z,101355.71
2018-05-21T08:53:13.069Z,101354.85
2018-05-21T08:55:41.413Z,101358.87
2018-05-21T08:58:09.736Z,101363.94
2018-05-21T09:00:38.084Z,101355.99
2018-05-21T09:03:06.412Z,101352.97
2018-05-21T09:05:34.757Z,101354.10
2018-05-21T09:08:03.104Z,101350.18
2018-05-21T09:10:32.370Z,101344.99
2018-05-21T09:13:00.692Z,101343.13
2018-05-21T09:15:29.042Z,101333.67
2018-05-21T09:17:57.377Z,101332.58
2018-05-21T09:20:25.721Z,101328.31
2018-05-21T09:22:54.048Z,101332.41
2018-05-21T09:25:22.394Z,101324.58
2018-05-21T09:27:50.724Z,101322.17
2018-05-21T09:30:19.077Z,101319.98
2018-05-21T09:32:47.408Z,101317.84
2018-05-21T09:35:15.748Z,101319.83
2018-05-21T09:37:44.072Z,101323.57
2018-05-21T09:40:12.424Z,101305.88
2018-05-21T09:42:40.788Z,101320.71
2018-05-21T09:45:09.146Z,101303.18
2018-05-21T09:47:37.469Z,101298.00
2018-05-21T09:50:05.817Z,101294.45
2018-05-21T09:52:34.145Z,101288.72
2018-05-21T09:55:02.496Z,101293.70
2018-05-21T09:57:30.819Z,101289.14
2018-05-21T09:59:59.168Z,101285.01
2018-05-21T10:02:27.497Z,101282.48
2018-05-21T10:04:55.840Z,101279.88
2018-05-21T10:07:24.160Z,101276.72
2018-05-21T10:09:52.506Z,101282.42
2018-05-21T10:12:20.901Z,101279.95
2018-05-21T10:14:49.255Z,101272.92
2018-05-21T10:17:17.660Z,101275.05
2018-05-21T10:19:46.001Z,101260.36
2018-05-21T10:22:14.344Z,101276.08
2018-05-21T10:24:42.688Z,101263.05
2018-05-21T10:27:11.038Z,101263.96
2018-05-21T10:29:39.361Z,101269.68
2018-05-21T10:32:07.700Z,101262.40
2018-05-21T10:34:36.033Z,101264.45
2018-05-21T10:37:05.401Z,101256.99
2018-05-21T10:39:33.825Z,101247.76
2018-05-21T10:42:02.260Z,101243.81
2018-05-21T10:44:30.593Z,101242.90
2018-05-21T10:46:58.944Z,101242.45
2018-05-21T10:49:27.470Z,101245.16
2018-05-21T10:51:55.829Z,101233.45
2018-05-21T10:54:24.156Z,101232.47
2018-05-21T10:56:52.520Z,101214.91
2018-05-21T10:59:20.857Z,101215.22
2018-05-21T11:01:49.205Z,101209.42
2018-05-21T11:04:17.605Z,101216.94
2018-05-21T11:06:45.941Z,101206.30
2018-05-21T11:09:14.377Z,101199.72
2018-05-21T11:11:42.730Z,101197.28
2018-05-21T11:14:11.079Z,101198.52
2018-05-21T11:16:39.432Z,101196.03
2018-05-21T11:19:07.762Z,101202.97
2018-05-21T11:21:36.108Z,101174.97
2018-05-21T11:24:04.436Z,101172.72
2018-05-21T11:26:32.780Z,101173.13
2018-05-21T11:29:01.116Z,101174.88
2018-05-21T11:31:29.461Z,101172.52
2018-05-21T11:33:57.792Z,101168.14
2018-05-21T11:36:26.132Z,101157.32
2018-05-21T11:38:54.624Z,101158.39
2018-05-21T11:41:22.956Z,101161.70
2018-05-21T11:43:51.285Z,101149.45
2018-05-21T11:46:19.826Z,101150.41
2018-05-21T11:48:48.185Z,101149.17
2018-05-21T11:51:16.547Z,101143.03
2018-05-21T11:53:44.879Z,101146.25
2018-05-21T11:56:13.241Z,101156.23
2018-05-21T11:58:41.578Z,101145.82
2018-05-21T12:01:09.932Z,101139.41
2018-05-21T12:03:38.284Z,101138.22
2018-05-21T12:06:06.932Z,101142.34
2018-05-21T12:08:35.257Z,101140.70
2018-05-21T12:11:03.844Z,101130.91
2018-05-21T12:13:32.253Z,101123.62
2018-05-21T12:16:00.549Z,101113.69
2018-05-21T12:18:28.877Z,101121.19
2018-05-21T12:20:57.346Z,101125.33
2018-05-21T12:23:25.695Z,101113.84
2018-05-21T12:25:54.017Z,101105.88
2018-05-21T12:28:22.369Z,101105.38
2018-05-21T12:30:50.710Z,101101.14
2018-05-21T12:33:19.055Z,101106.03
2018-05-21T12:35:47.385Z,101112.82
2018-05-21T12:38:15.806Z,101105.55
2018-05-21T12:40:44.083Z,101090.42
2018-05-21T12:43:12.433Z,101094.73
2018-05-21T12:45:40.784Z,101083.23
2018-05-21T12:48:09.316Z,101088.87
2018-05-21T12:50:37.631Z,101089.29
2018-05-21T12:53:05.982Z,101085.90
2018-05-21T12:55:34.304Z,101092.26
2018-05-21T12:58:02.652Z,101091.84
2018-05-21T13:00:30.976Z,101086.69
2018-05-21T13:02:59.329Z,101075.39
2018-05-21T13:05:27.661Z,101064.39
2018-05-21T13:07:56.060Z,101065.17
2018-05-21T13:10:24.397Z,101066.45
2018-05-21T13:12:52.746Z,101071.11
2018-05-21T13:15:21.136Z,101065.56
2018-05-21T13:17:49.433Z,101057.29
2018-05-21T13:20:17.823Z,101060.84
2018-05-21T13:22:46.625Z,101063.49
2018-05-21T13:25:14.948Z,101057.64
2018-05-21T13:27:43.310Z,101058.52
2018-05-21T13:30:11.658Z,101049.27
2018-05-21T13:32:39.996Z,101055.10
2018-05-21T13:35:08.324Z,101031.38
2018-05-21T13:37:36.664Z,101033.16
2018-05-21T13:40:05.007Z,101027.08
2018-05-21T13:42:34.164Z,101029.24
2018-05-21T13:45:02.493Z,101032.55
2018-05-21T13:47:30.900Z,101037.23
2018-05-21T13:49:59.209Z,101017.63
2018-05-21T13:52:27.672Z,101030.53
2018-05-21T13:54:55.888Z,101026.17
2018-05-21T13:57:24.253Z,101013.34
2018-05-21T13:59:52.599Z,101013.99
2018-05-21T14:02:20.964Z,101008.34
2018-05-21T14:04:49.293Z,101009.71
2018-05-21T14:07:17.653Z,101003.05
2018-05-21T14:09:45.971Z,101000.39
2018-05-21T14:12:14.442Z,101005.48
2018-05-21T14:14:42.761Z,100990.71
2018-05-21T14:17:11.161Z,100995.51
2018-05-21T14:19:39.463Z,100986.84
2018-05-21T14:22:08.771Z,100986.89
2018-05-21T14:24:37.112Z,100985.91
2018-05-21T14:27:06.277Z,100972.98
2018-05-21T14:29:34.631Z,100977.80
2018-05-21T14:32:02.984Z,100972.92
2018-05-21T14:34:31.336Z,100971.34
2018-05-21T14:36:59.676Z,100962.93
2018-05-21T14:39:28.064Z,100954.58
2018-05-21T14:41:56.376Z,100946.70
2018-05-21T14:44:24.724Z,100942.81
2018-05-21T14:46:53.056Z,100932.34
2018-05-21T14:49:21.405Z,100938.81
2018-05-21T14:51:49.735Z,100935.55
2018-05-21T14:54:18.080Z,100944.37
2018-05-21T14:56:46.408Z,100934.63
2018-05-21T14:59:14.769Z,100936.84
2018-05-21T15:01:43.110Z,100934.01
2018-05-21T15:04:11.469Z,100930.22
2018-05-21T15:06:39.810Z,100932.52
2018-05-21T15:09:08.179Z,100936.31
2018-05-21T15:11:36.497Z,100929.40
2018-05-21T15:14:04.861Z,100923.80
2018-05-21T15:16:33.234Z,100921.92
2018-05-21T15:19:01.580Z,100909.30
2018-05-21T15:21:29.943Z,100908.11
2018-05-21T15:23:58.303Z,100904.63
2018-05-21T15:26:26.643Z,100900.00
2018-05-21T15:28:55.013Z,100904.89
2018-05-21T15:31:23.360Z,100898.20
2018-05-21T15:33:51.716Z,100892.95
2018-05-21T15:36:20.044Z,100898.94
2018-05-21T15:38:48.396Z,100885.19
2018-05-21T15:41:17.573Z,100898.03
2018-05-21T15:43:45.925Z,100891.86
2018-05-21T15:46:14.266Z,100892.95
2018-05-21T15:48:42.760Z,100897.48
2018-05-21T15:51:10.956Z,100892.49
2018-05-21T15:53:39.318Z,100893.77
2018-05-21T15:56:07.742Z,100889.56
2018-05-21T15:58:36.084Z,100884.75
2018-05-21T16:01:04.505Z,100885.30
2018-05-21T16:03:32.856Z,100881.79
2018-05-21T16:06:01.204Z,100891.87
2018-05-21T16:08:29.644Z,100874.83
2018-05-21T16:10:57.933Z,100876.28
2018-05-21T16:13:26.306Z,100873.22
2018-05-21T16:15:54.632Z,100870.05
2018-05-21T16:18:23.002Z,100864.05
2018-05-21T16:20:51.968Z,100866.97
2018-05-21T16:23:20.332Z,100864.22
2018-05-21T16:25:48.665Z,100866.48
2018-05-21T16:28:17.473Z,100860.06
2018-05-21T16:30:47.327Z,100858.90
2018-05-21T16:33:15.820Z,100858.88
2018-05-21T16:35:44.179Z,100853.48
2018-05-21T16:38:12.520Z,100854.34
2018-05-21T16:40:40.865Z,100855.35
2018-05-21T16:43:09.198Z,100854.56
2018-05-21T16:45:37.557Z,100849.72
2018-05-21T16:48:05.880Z,100849.62
2018-05-21T16:50:34.233Z,100851.86
2018-05-21T16:53:02.565Z,100846.59
2018-05-21T16:55:30.905Z,100846.67
2018-05-21T16:57:59.232Z,100845.70
2018-05-21T17:00:27.599Z,100837.28
2018-05-21T17:02:55.900Z,100845.74
2018-05-21T17:05:24.245Z,100843.91
2018-05-21T17:07:52.569Z,100834.73
2018-05-21T17:10:21.062Z,100834.62
2018-05-21T17:12:49.244Z,100848.53
2018-05-21T17:15:17.593Z,100836.04
2018-05-21T17:17:45.921Z,100839.67
2018-05-21T17:20:14.726Z,100832.23
2018-05-21T17:22:43.145Z,100827.69
2018-05-21T17:25:11.533Z,100828.23
2018-05-21T17:27:39.860Z,100822.63
2018-05-21T17:30:08.441Z,100825.25
2018-05-21T17:32:36.786Z,100823.24
2018-05-21T17:35:05.191Z,100829.22
2018-05-21T17:37:33.522Z,100826.64
2018-05-21T17:40:02.592Z,100825.31
2018-05-21T17:42:31.050Z,100830.46
2018-05-21T17:44:59.453Z,100825.26
2018-05-21T17:47:27.890Z,100830.40
2018-05-21T17:49:56.384Z,100834.36
2018-05-21T17:52:24.705Z,100826.86
2018-05-21T17:54:53.060Z,100827.28
2018-05-21T17:57:21.380Z,100829.87
2018-05-21T17:59:49.897Z,100835.39
2018-05-21T18:02:18.224Z,100831.38
2018-05-21T18:04:46.569Z,100832.21
2018-05-21T18:07:14.897Z,100829.17
2018-05-21T18:09:43.245Z,100827.88
2018-05-21T18:12:11.569Z,100829.83
2018-05-21T18:14:39.934Z,100828.55
2018-05-21T18:17:08.239Z,100829.06
2018-05-21T18:19:37.646Z,100826.16
2018-05-21T18:22:05.974Z,100829.56
2018-05-21T18:24:34.320Z,100826.30
2018-05-21T18:27:02.752Z,100829.45
2018-05-21T18:29:31.084Z,100826.70
2018-05-21T18:31:59.444Z,100826.66
2018-05-21T18:34:27.798Z,100824.91
2018-05-21T18:36:56.140Z,100825.92
2018-05-21T18:39:25.129Z,100826.13
2018-05-21T18:41:53.481Z,100830.68
2018-05-21T18:44:21.800Z,100825.23
2018-05-21T18:46:50.145Z,100827.63
2018-05-21T18:49:18.473Z,100826.13
2018-05-21T18:51:46.824Z,100820.64
2018-05-21T18:54:15.157Z,100819.50
2018-05-21T18:56:43.505Z,100821.00
2018-05-21T18:59:11.845Z,100825.94
2018-05-21T19:01:40.192Z,100822.68
2018-05-21T19:04:08.516Z,100828.95
2018-05-21T19:06:36.877Z,100825.19
2018-05-21T19:09:06.036Z,100830.65
2018-05-21T19:11:34.384Z,100825.03
2018-05-21T19:14:02.721Z,100827.84
2018-05-21T19:16:31.072Z,100828.09
2018-05-21T19:18:59.406Z,100826.09
2018-05-21T19:21:27.760Z,100826.20
2018-05-21T19:23:56.096Z,100827.28
2018-05-21T19:26:24.449Z,100836.84
2018-05-21T19:28:52.789Z,100830.59
2018-05-21T19:31:21.136Z,100832.30
2018-05-21T19:33:49.468Z,100832.77
2018-05-21T19:36:17.821Z,100837.45
2018-05-21T19:38:46.165Z,100841.13
2018-05-21T19:41:14.520Z,100840.67
2018-05-21T19:43:42.853Z,100836.05
2018-05-21T19:46:11.203Z,100838.64
2018-05-21T19:48:39.533Z,100838.42
2018-05-21T19:51:07.880Z,100838.92
2018-05-21T19:53:36.204Z,100838.72
2018-05-21T19:56:04.559Z,100837.52
2018-05-21T19:58:32.885Z,100837.22
2018-05-21T20:01:01.237Z,100833.77
2018-05-21T20:03:29.565Z,100838.63
2018-05-21T20:05:57.907Z,100836.00
2018-05-21T20:08:26.234Z,100832.14
2018-05-21T20:10:54.584Z,100829.77
2018-05-21T20:13:22.914Z,100834.05
2018-05-21T20:15:51.265Z,100832.14
2018-05-21T20:18:31.289Z,100837.89
2018-05-21T20:20:59.636Z,100832.79
2018-05-21T20:23:27.960Z,100833.36
2018-05-21T20:25:56.309Z,100830.70
2018-05-21T20:28:24.639Z,100829.55
2018-05-21T20:30:52.989Z,100836.11
2018-05-21T20:33:21.328Z,100837.50
2018-05-21T20:35:49.680Z,100839.77
2018-05-21T20:38:18.041Z,100838.80
2018-05-21T20:40:46.368Z,100836.73
2018-05-21T20:43:14.732Z,100833.05
2018-05-21T20:45:43.065Z,100831.10
2018-05-21T20:48:11.420Z,100828.72
2018-05-21T20:50:39.749Z,100833.69
2018-05-21T20:53:08.093Z,100826.89
2018-05-21T20:55:36.418Z,100830.42
2018-05-21T20:58:04.771Z,100831.35
2018-05-21T21:00:33.112Z,100833.19
2018-05-21T21:03:02.428Z,100828.44
2018-05-21T21:05:30.764Z,100827.80
2018-05-21T21:07:59.120Z,100824.34
2018-05-21T21:10:27.459Z,100825.21
2018-05-21T21:12:55.812Z,100830.96
2018-05-21T21:15:24.168Z,100833.25
2018-05-21T21:17:52.520Z,100836.05
2018-05-21T21:20:20.840Z,100837.48
2018-05-21T21:22:50.026Z,100834.02
2018-05-21T21:25:18.372Z,100832.91
2018-05-21T21:27:46.729Z,100833.64
2018-05-21T21:30:15.073Z,100828.42
2018-05-21T21:32:43.428Z,100829.22
2018-05-21T21:35:11.765Z,100826.06
2018-05-21T21:37:40.117Z,100828.12
2018-05-21T21:40:08.442Z,100834.33
2018-05-21T21:42:36.789Z,100832.61
2018-05-21T21:45:05.117Z,100825.34
2018-05-21T21:47:33.479Z,100826.31
2018-05-21T21:50:01.809Z,100821.09
2018-05-21T21:52:30.165Z,100819.38
2018-05-21T21:54:58.489Z,100812.25
2018-05-21T21:57:26.837Z,100809.78
2018-05-21T21:59:55.164Z,100807.34
2018-05-21T22:02:23.508Z,100809.06
2018-05-21T22:04:51.841Z,100810.45
2018-05-21T22:07:20.204Z,100808.52
2018-05-21T22:09:48.537Z,100806.33
2018-05-21T22:12:16.889Z,100812.89
2018-05-21T22:14:45.223Z,100808.24
2018-05-21T22:17:13.573Z,100802.81
2018-05-21T22:19:41.896Z,100805.52
2018-05-21T22:22:10.244Z,100804.27
2018-05-21T22:24:38.582Z,100799.14
2018-05-21T22:27:06.926Z,100795.77
2018-05-21T22:29:35.261Z,100797.05
2018-05-21T22:32:03.601Z,100791.48
2018-05-21T22:34:31.938Z,100789.73
2018-05-21T22:37:00.304Z,100790.63
2018-05-21T22:39:28.638Z,100788.92
2018-05-21T22:41:56.964Z,100787.67
2018-05-21T22:44:25.334Z,100786.37
2018-05-21T22:46:53.670Z,100782.08
2018-05-21T22:49:22.026Z,100779.08
2018-05-21T22:51:50.365Z,100778.22
2018-05-21T22:54:30.494Z,100773.05
2018-05-21T22:56:58.817Z,100770.91
2018-05-21T22:59:27.168Z,100770.03
2018-05-21T23:01:55.500Z,100770.41
2018-05-21T23:04:23.849Z,100766.97
2018-05-21T23:06:52.186Z,100769.15
2018-05-21T23:09:20.535Z,100764.02
2018-05-21T23:11:48.875Z,100756.70
2018-05-21T23:14:17.228Z,100758.00
2018-05-21T23:16:45.557Z,100758.91
2018-05-21T23:19:13.912Z,100757.64
2018-05-21T23:21:42.238Z,100756.84
2018-05-21T23:24:10.582Z,100748.25
2018-05-21T23:26:38.908Z,100747.84
2018-05-21T23:29:07.260Z,100742.24
2018-05-21T23:31:35.591Z,100741.37
2018-05-21T23:34:03.941Z,100745.66
2018-05-21T23:36:32.268Z,100746.09
2018-05-21T23:39:00.621Z,100740.09
2018-05-21T23:41:28.953Z,100743.55
2018-05-21T23:43:57.297Z,100742.27
2018-05-21T23:46:25.628Z,100739.69
2018-05-21T23:48:53.977Z,100741.83
2018-05-21T23:51:22.293Z,100742.27
2018-05-21T23:53:50.649Z,100741.42
2018-05-21T23:56:18.997Z,100736.27
2018-05-21T23:58:47.340Z,100743.14
